Aviation Discussion


.AVIATION /19Z FRIDAY THROUGH WEDNESDAY/...
VFR CONDITIONS EXPECTED TODAY AND TONIGHT. HIGH PRESSURE MOVES OFF
THE EAST COAST SATURDAY AND SRLY WINDS AROUND 10-15 KTS WILL OCCUR
THROUGH THE AFTERNOON. A FEW ISO SHOWERS WILL BE POSSIBLE NEAR
DCA-BWI-MTN SATURDAY AFTERNOON. SHOWERS AND THUNDERSTORMS WILL BE
POSSIBLE SUNDAY AND MVFR/IFR CONDITIONS WILL BE POSSIBLE. A FEW
THUNDERSTORMS MAY PRODUCE GUSTY WINDS...LARGE HAIL AND ISOLATED
TORNADOES.

MVFR OR LWR CIGS/VSBYS IN SHWRS/TSTMS SUN NIGHT-MON...IMPROVING TO 
VFR MON NIGHT. SW WIND AROUND 10 KTS BECOMING NW 15-20 KTS AND GUSTY 
MON EVENING W/ COLD FROPA.

 

Terminal Aviation Forecasts

AMENDED TAFBWI (View previous versions )
KBWI 252052Z 2521/2624 VRB05KT P6SM SKC
     FM260000 18003KT P6SM FEW250
     FM261100 21005KT P6SM BKN050 BKN150
     FM261500 22009KT P6SM BKN045=

TAFCHO (View previous versions )
KCHO 251725Z 2518/2618 VRB03KT P6SM SCT050
     FM261500 20007KT P6SM BKN140=

AMENDED TAFDCA (View previous versions )
KDCA 252051Z 2521/2618 VRB04KT P6SM SKC
     FM260000 18003KT P6SM SKC
     FM260900 19004KT P6SM SCT050
     FM261600 21008KT P6SM BKN120=

AMENDED TAFIAD (View previous versions )
KIAD 252050Z 2521/2624 27005KT P6SM FEW060
     FM260000 18003KT P6SM FEW250
     FM261500 23008KT P6SM BKN050=

TAFMRB (View previous versions )
KMRB 251725Z 2518/2618 VRB03KT P6SM FEW050
     FM260300 16005KT P6SM SCT050
     FM261600 22006KT P6SM BKN120=

TAFMTN (View previous versions )
KMTN 251725Z 2518/2618 30005KT P6SM SKC
     FM260000 VRB03KT P6SM FEW250
     FM261100 21005KT P6SM BKN050
     FM261700 20010KT P6SM BKN140=


Meteorological Impact Statement

ZDC MIS 02 VALID 252200-260600
...FOR ATC PLANNING PURPOSES ONLY...
ISOL SHRA TS TOPS NR FL300 SERN NC VCY FAY-ILM LOCAL J79
DEVIATIONS. OCNL LGT-MOD TURB FL250-430 ACRS ZDC. ISOL SEV
TURB IN ISOL SHRA TS SERN NC. NO SIG ICE OUTSD ISOL SHRA TS
...FZLVL 130-150. LOCAL LIFR VIS 1/2SM FG WV VLYS AFT 04Z. .
.......................................................
.

Surface Map


TRACON Thunderstorm Forecast


Vertical Wind Profiles